sensor_id;sensor_type;location;lat;lon;timestamp;P1;durP1;ratioP1;P2;durP2;ratioP2
53267;SDS011;39156;51.176;6.738;2023-08-06T00:02:49;35.97;;;34.08;;
53267;SDS011;39156;51.176;6.738;2023-08-06T00:05:15;37.07;;;34.97;;
53267;SDS011;39156;51.176;6.738;2023-08-06T00:07:49;36.35;;;34.15;;
53267;SDS011;39156;51.176;6.738;2023-08-06T00:10:16;35.60;;;33.60;;
53267;SDS011;39156;51.176;6.738;2023-08-06T00:12:42;37.40;;;35.30;;
53267;SDS011;39156;51.176;6.738;2023-08-06T00:15:09;38.65;;;36.35;;
53267;SDS011;39156;51.176;6.738;2023-08-06T00:17:35;37.35;;;35.13;;
53267;SDS011;39156;51.176;6.738;2023-08-06T00:20:02;36.67;;;34.63;;
53267;SDS011;39156;51.176;6.738;2023-08-06T00:22:31;34.78;;;32.78;;
53267;SDS011;39156;51.176;6.738;2023-08-06T00:24:58;37.22;;;35.13;;
53267;SDS011;39156;51.176;6.738;2023-08-06T00:27:24;37.30;;;34.93;;
53267;SDS011;39156;51.176;6.738;2023-08-06T00:29:50;36.88;;;34.83;;
53267;SDS011;39156;51.176;6.738;2023-08-06T00:32:15;36.07;;;34.17;;
53267;SDS011;39156;51.176;6.738;2023-08-06T00:34:42;35.25;;;33.35;;
53267;SDS011;39156;51.176;6.738;2023-08-06T00:37:08;35.03;;;33.17;;
53267;SDS011;39156;51.176;6.738;2023-08-06T00:39:33;35.37;;;33.47;;
53267;SDS011;39156;51.176;6.738;2023-08-06T00:41:59;35.43;;;33.53;;
53267;SDS011;39156;51.176;6.738;2023-08-06T00:44:25;36.93;;;34.93;;
53267;SDS011;39156;51.176;6.738;2023-08-06T00:46:50;37.10;;;35.00;;
53267;SDS011;39156;51.176;6.738;2023-08-06T00:49:16;37.20;;;35.10;;
53267;SDS011;39156;51.176;6.738;2023-08-06T00:51:42;37.47;;;35.37;;
53267;SDS011;39156;51.176;6.738;2023-08-06T00:54:08;37.70;;;35.53;;
53267;SDS011;39156;51.176;6.738;2023-08-06T00:56:35;36.83;;;34.53;;
53267;SDS011;39156;51.176;6.738;2023-08-06T00:59:03;38.42;;;36.25;;
53267;SDS011;39156;51.176;6.738;2023-08-06T01:01:30;37.53;;;35.45;;
53267;SDS011;39156;51.176;6.738;2023-08-06T01:03:56;36.27;;;34.17;;
53267;SDS011;39156;51.176;6.738;2023-08-06T01:06:23;35.37;;;33.47;;
53267;SDS011;39156;51.176;6.738;2023-08-06T01:12:18;38.08;;;35.97;;
53267;SDS011;39156;51.176;6.738;2023-08-06T01:17:43;35.70;;;33.60;;
53267;SDS011;39156;51.176;6.738;2023-08-06T01:20:10;34.70;;;32.80;;
53267;SDS011;39156;51.176;6.738;2023-08-06T01:22:36;36.40;;;33.70;;
53267;SDS011;39156;51.176;6.738;2023-08-06T01:25:02;35.77;;;33.63;;
53267;SDS011;39156;51.176;6.738;2023-08-06T01:27:30;34.80;;;32.80;;
53267;SDS011;39156;51.176;6.738;2023-08-06T01:30:14;37.03;;;34.90;;
53267;SDS011;39156;51.176;6.738;2023-08-06T01:32:44;35.25;;;33.25;;
53267;SDS011;39156;51.176;6.738;2023-08-06T01:35:15;36.90;;;34.70;;
53267;SDS011;39156;51.176;6.738;2023-08-06T01:37:42;36.63;;;34.40;;
53267;SDS011;39156;51.176;6.738;2023-08-06T01:40:12;35.20;;;33.30;;
53267;SDS011;39156;51.176;6.738;2023-08-06T01:42:38;36.30;;;34.20;;
53267;SDS011;39156;51.176;6.738;2023-08-06T01:45:05;35.05;;;33.22;;
53267;SDS011;39156;51.176;6.738;2023-08-06T01:47:34;35.38;;;33.47;;
53267;SDS011;39156;51.176;6.738;2023-08-06T01:50:00;35.20;;;33.40;;
53267;SDS011;39156;51.176;6.738;2023-08-06T01:52:26;35.07;;;33.20;;
53267;SDS011;39156;51.176;6.738;2023-08-06T01:54:53;35.63;;;33.75;;
53267;SDS011;39156;51.176;6.738;2023-08-06T01:57:19;36.58;;;34.47;;
53267;SDS011;39156;51.176;6.738;2023-08-06T01:59:45;35.03;;;33.23;;
53267;SDS011;39156;51.176;6.738;2023-08-06T02:02:11;36.37;;;34.37;;
53267;SDS011;39156;51.176;6.738;2023-08-06T02:04:37;35.25;;;33.35;;
53267;SDS011;39156;51.176;6.738;2023-08-06T02:07:03;34.33;;;32.37;;
53267;SDS011;39156;51.176;6.738;2023-08-06T02:09:29;33.38;;;31.52;;
53267;SDS011;39156;51.176;6.738;2023-08-06T02:11:54;35.90;;;33.90;;
53267;SDS011;39156;51.176;6.738;2023-08-06T02:14:20;37.07;;;34.83;;
53267;SDS011;39156;51.176;6.738;2023-08-06T02:16:46;35.30;;;33.40;;
53267;SDS011;39156;51.176;6.738;2023-08-06T02:19:11;36.10;;;34.20;;
53267;SDS011;39156;51.176;6.738;2023-08-06T02:21:37;36.17;;;34.27;;
53267;SDS011;39156;51.176;6.738;2023-08-06T02:24:03;35.10;;;33.20;;
53267;SDS011;39156;51.176;6.738;2023-08-06T02:26:29;36.03;;;34.13;;
53267;SDS011;39156;51.176;6.738;2023-08-06T02:28:54;34.43;;;32.63;;
53267;SDS011;39156;51.176;6.738;2023-08-06T02:31:20;34.00;;;32.10;;
53267;SDS011;39156;51.176;6.738;2023-08-06T02:33:46;36.50;;;34.60;;
53267;SDS011;39156;51.176;6.738;2023-08-06T02:36:12;35.37;;;33.43;;
53267;SDS011;39156;51.176;6.738;2023-08-06T02:38:37;35.37;;;33.53;;
53267;SDS011;39156;51.176;6.738;2023-08-06T02:41:03;36.50;;;34.57;;
53267;SDS011;39156;51.176;6.738;2023-08-06T02:43:29;37.45;;;35.35;;
53267;SDS011;39156;51.176;6.738;2023-08-06T02:45:58;35.70;;;33.80;;
53267;SDS011;39156;51.176;6.738;2023-08-06T02:48:25;35.67;;;33.67;;
53267;SDS011;39156;51.176;6.738;2023-08-06T02:50:50;33.63;;;31.83;;
53267;SDS011;39156;51.176;6.738;2023-08-06T02:53:16;35.07;;;33.27;;
53267;SDS011;39156;51.176;6.738;2023-08-06T02:55:45;34.17;;;32.30;;
53267;SDS011;39156;51.176;6.738;2023-08-06T02:58:15;35.70;;;33.80;;
53267;SDS011;39156;51.176;6.738;2023-08-06T03:00:42;36.30;;;34.30;;
53267;SDS011;39156;51.176;6.738;2023-08-06T03:05:34;36.92;;;34.92;;
53267;SDS011;39156;51.176;6.738;2023-08-06T03:08:00;35.87;;;33.90;;
53267;SDS011;39156;51.176;6.738;2023-08-06T03:10:26;36.67;;;34.67;;
53267;SDS011;39156;51.176;6.738;2023-08-06T03:12:51;35.03;;;33.03;;
53267;SDS011;39156;51.176;6.738;2023-08-06T03:15:17;36.60;;;34.30;;
53267;SDS011;39156;51.176;6.738;2023-08-06T03:17:43;37.20;;;34.97;;
53267;SDS011;39156;51.176;6.738;2023-08-06T03:20:09;35.20;;;32.93;;
53267;SDS011;39156;51.176;6.738;2023-08-06T03:22:35;36.97;;;34.72;;
53267;SDS011;39156;51.176;6.738;2023-08-06T03:25:01;35.13;;;33.13;;
53267;SDS011;39156;51.176;6.738;2023-08-06T03:27:28;37.15;;;35.03;;
53267;SDS011;39156;51.176;6.738;2023-08-06T03:29:53;34.63;;;32.60;;
53267;SDS011;39156;51.176;6.738;2023-08-06T03:32:19;35.33;;;33.33;;
53267;SDS011;39156;51.176;6.738;2023-08-06T03:34:45;36.10;;;34.10;;
53267;SDS011;39156;51.176;6.738;2023-08-06T03:37:11;37.73;;;35.73;;
53267;SDS011;39156;51.176;6.738;2023-08-06T03:39:37;34.43;;;32.60;;
53267;SDS011;39156;51.176;6.738;2023-08-06T03:42:03;37.22;;;35.03;;
53267;SDS011;39156;51.176;6.738;2023-08-06T03:44:29;35.30;;;33.37;;
53267;SDS011;39156;51.176;6.738;2023-08-06T03:46:55;38.08;;;35.97;;
53267;SDS011;39156;51.176;6.738;2023-08-06T03:49:21;38.03;;;35.73;;
53267;SDS011;39156;51.176;6.738;2023-08-06T03:51:47;36.70;;;34.70;;
53267;SDS011;39156;51.176;6.738;2023-08-06T03:54:12;36.67;;;34.57;;
53267;SDS011;39156;51.176;6.738;2023-08-06T03:56:38;36.07;;;34.07;;
53267;SDS011;39156;51.176;6.738;2023-08-06T03:59:04;37.00;;;34.87;;
53267;SDS011;39156;51.176;6.738;2023-08-06T04:01:29;36.13;;;34.13;;
53267;SDS011;39156;51.176;6.738;2023-08-06T04:03:55;35.70;;;33.70;;
53267;SDS011;39156;51.176;6.738;2023-08-06T04:06:20;36.87;;;34.83;;
53267;SDS011;39156;51.176;6.738;2023-08-06T04:08:46;36.72;;;34.45;;
53267;SDS011;39156;51.176;6.738;2023-08-06T04:11:12;38.90;;;36.70;;
53267;SDS011;39156;51.176;6.738;2023-08-06T04:13:38;36.20;;;34.10;;
53267;SDS011;39156;51.176;6.738;2023-08-06T04:16:07;35.85;;;33.85;;
53267;SDS011;39156;51.176;6.738;2023-08-06T04:18:33;36.83;;;34.73;;
53267;SDS011;39156;51.176;6.738;2023-08-06T04:20:58;35.17;;;33.10;;
53267;SDS011;39156;51.176;6.738;2023-08-06T04:23:24;40.00;;;36.60;;
53267;SDS011;39156;51.176;6.738;2023-08-06T04:25:50;36.47;;;34.37;;
53267;SDS011;39156;51.176;6.738;2023-08-06T04:28:16;36.50;;;34.53;;
53267;SDS011;39156;51.176;6.738;2023-08-06T04:30:41;35.77;;;33.83;;
53267;SDS011;39156;51.176;6.738;2023-08-06T04:33:07;36.80;;;34.70;;
53267;SDS011;39156;51.176;6.738;2023-08-06T04:35:32;34.27;;;32.27;;
53267;SDS011;39156;51.176;6.738;2023-08-06T04:37:58;38.23;;;36.13;;
53267;SDS011;39156;51.176;6.738;2023-08-06T04:40:24;36.50;;;34.60;;
53267;SDS011;39156;51.176;6.738;2023-08-06T04:42:50;34.07;;;32.30;;
53267;SDS011;39156;51.176;6.738;2023-08-06T04:45:15;36.03;;;34.07;;
53267;SDS011;39156;51.176;6.738;2023-08-06T04:47:41;35.30;;;33.40;;
53267;SDS011;39156;51.176;6.738;2023-08-06T04:50:07;35.50;;;33.53;;
53267;SDS011;39156;51.176;6.738;2023-08-06T04:52:33;34.53;;;32.60;;
53267;SDS011;39156;51.176;6.738;2023-08-06T04:54:59;35.33;;;33.43;;
53267;SDS011;39156;51.176;6.738;2023-08-06T04:57:24;36.57;;;34.37;;
53267;SDS011;39156;51.176;6.738;2023-08-06T04:59:50;36.80;;;34.80;;
53267;SDS011;39156;51.176;6.738;2023-08-06T05:02:16;37.30;;;35.30;;
53267;SDS011;39156;51.176;6.738;2023-08-06T05:04:41;34.00;;;32.10;;
53267;SDS011;39156;51.176;6.738;2023-08-06T05:07:07;34.67;;;32.87;;
53267;SDS011;39156;51.176;6.738;2023-08-06T05:09:33;33.43;;;31.53;;
53267;SDS011;39156;51.176;6.738;2023-08-06T05:12:03;35.30;;;33.50;;
53267;SDS011;39156;51.176;6.738;2023-08-06T05:14:30;34.45;;;32.55;;
53267;SDS011;39156;51.176;6.738;2023-08-06T05:16:55;35.03;;;33.13;;
53267;SDS011;39156;51.176;6.738;2023-08-06T05:19:21;34.77;;;32.90;;
53267;SDS011;39156;51.176;6.738;2023-08-06T05:21:46;33.80;;;32.00;;
53267;SDS011;39156;51.176;6.738;2023-08-06T05:24:12;34.90;;;32.90;;
53267;SDS011;39156;51.176;6.738;2023-08-06T05:26:38;34.90;;;33.10;;
53267;SDS011;39156;51.176;6.738;2023-08-06T05:29:03;35.17;;;33.27;;
53267;SDS011;39156;51.176;6.738;2023-08-06T05:31:29;35.27;;;33.27;;
53267;SDS011;39156;51.176;6.738;2023-08-06T05:33:55;35.00;;;33.13;;
53267;SDS011;39156;51.176;6.738;2023-08-06T05:36:21;33.47;;;31.67;;
53267;SDS011;39156;51.176;6.738;2023-08-06T05:38:46;35.10;;;33.20;;
53267;SDS011;39156;51.176;6.738;2023-08-06T05:41:12;36.43;;;34.33;;
53267;SDS011;39156;51.176;6.738;2023-08-06T05:43:38;35.35;;;33.30;;
53267;SDS011;39156;51.176;6.738;2023-08-06T05:46:04;37.67;;;35.67;;
53267;SDS011;39156;51.176;6.738;2023-08-06T05:48:30;37.33;;;35.07;;
53267;SDS011;39156;51.176;6.738;2023-08-06T05:50:56;39.17;;;36.88;;
53267;SDS011;39156;51.176;6.738;2023-08-06T05:53:23;37.20;;;35.08;;
53267;SDS011;39156;51.176;6.738;2023-08-06T05:55:49;38.23;;;36.07;;
53267;SDS011;39156;51.176;6.738;2023-08-06T05:58:15;36.60;;;34.60;;
53267;SDS011;39156;51.176;6.738;2023-08-06T06:00:41;36.07;;;34.07;;
53267;SDS011;39156;51.176;6.738;2023-08-06T06:03:07;39.37;;;37.17;;
53267;SDS011;39156;51.176;6.738;2023-08-06T06:05:32;34.77;;;32.87;;
53267;SDS011;39156;51.176;6.738;2023-08-06T06:07:58;35.13;;;33.30;;
53267;SDS011;39156;51.176;6.738;2023-08-06T06:10:23;34.93;;;33.00;;
53267;SDS011;39156;51.176;6.738;2023-08-06T06:12:49;34.43;;;32.53;;
53267;SDS011;39156;51.176;6.738;2023-08-06T06:15:15;34.73;;;32.63;;
53267;SDS011;39156;51.176;6.738;2023-08-06T06:17:40;35.97;;;33.70;;
53267;SDS011;39156;51.176;6.738;2023-08-06T06:20:06;33.60;;;31.73;;
53267;SDS011;39156;51.176;6.738;2023-08-06T06:22:32;34.20;;;32.40;;
53267;SDS011;39156;51.176;6.738;2023-08-06T06:24:58;35.57;;;33.60;;
53267;SDS011;39156;51.176;6.738;2023-08-06T06:27:24;35.03;;;33.07;;
53267;SDS011;39156;51.176;6.738;2023-08-06T06:29:49;34.17;;;32.37;;
53267;SDS011;39156;51.176;6.738;2023-08-06T06:32:17;36.17;;;34.20;;
53267;SDS011;39156;51.176;6.738;2023-08-06T06:34:43;34.60;;;32.70;;
53267;SDS011;39156;51.176;6.738;2023-08-06T06:37:08;34.63;;;32.77;;
53267;SDS011;39156;51.176;6.738;2023-08-06T06:39:34;34.63;;;32.73;;
53267;SDS011;39156;51.176;6.738;2023-08-06T06:42:00;34.80;;;32.90;;
53267;SDS011;39156;51.176;6.738;2023-08-06T06:44:25;35.30;;;33.30;;
53267;SDS011;39156;51.176;6.738;2023-08-06T06:46:51;35.10;;;33.20;;
53267;SDS011;39156;51.176;6.738;2023-08-06T06:49:17;33.30;;;31.50;;
53267;SDS011;39156;51.176;6.738;2023-08-06T06:51:42;33.27;;;31.43;;
53267;SDS011;39156;51.176;6.738;2023-08-06T06:54:08;34.80;;;32.90;;
53267;SDS011;39156;51.176;6.738;2023-08-06T06:56:34;33.87;;;32.07;;
53267;SDS011;39156;51.176;6.738;2023-08-06T06:58:59;34.60;;;32.80;;
53267;SDS011;39156;51.176;6.738;2023-08-06T07:01:25;33.73;;;32.00;;
53267;SDS011;39156;51.176;6.738;2023-08-06T07:03:51;33.70;;;31.97;;
53267;SDS011;39156;51.176;6.738;2023-08-06T07:06:16;35.37;;;33.40;;
53267;SDS011;39156;51.176;6.738;2023-08-06T07:08:43;34.90;;;32.90;;
53267;SDS011;39156;51.176;6.738;2023-08-06T07:11:09;33.47;;;31.58;;
53267;SDS011;39156;51.176;6.738;2023-08-06T07:13:35;34.10;;;32.30;;
53267;SDS011;39156;51.176;6.738;2023-08-06T07:16:01;34.88;;;32.97;;
53267;SDS011;39156;51.176;6.738;2023-08-06T07:18:27;34.00;;;32.20;;
53267;SDS011;39156;51.176;6.738;2023-08-06T07:20:53;33.17;;;31.47;;
53267;SDS011;39156;51.176;6.738;2023-08-06T07:23:20;32.58;;;30.88;;
53267;SDS011;39156;51.176;6.738;2023-08-06T07:25:47;33.80;;;32.00;;
53267;SDS011;39156;51.176;6.738;2023-08-06T07:28:13;34.20;;;32.30;;
53267;SDS011;39156;51.176;6.738;2023-08-06T07:30:40;34.90;;;32.80;;
53267;SDS011;39156;51.176;6.738;2023-08-06T07:33:06;34.15;;;32.15;;
53267;SDS011;39156;51.176;6.738;2023-08-06T07:35:32;35.20;;;33.10;;
53267;SDS011;39156;51.176;6.738;2023-08-06T07:37:58;35.05;;;33.15;;
53267;SDS011;39156;51.176;6.738;2023-08-06T07:40:24;34.40;;;32.57;;
53267;SDS011;39156;51.176;6.738;2023-08-06T07:42:50;36.20;;;34.20;;
53267;SDS011;39156;51.176;6.738;2023-08-06T07:45:16;32.77;;;31.07;;
53267;SDS011;39156;51.176;6.738;2023-08-06T07:47:41;35.40;;;33.40;;
53267;SDS011;39156;51.176;6.738;2023-08-06T07:50:08;33.35;;;31.55;;
53267;SDS011;39156;51.176;6.738;2023-08-06T07:52:34;34.00;;;32.20;;
53267;SDS011;39156;51.176;6.738;2023-08-06T07:55:00;34.27;;;32.43;;
53267;SDS011;39156;51.176;6.738;2023-08-06T07:57:29;33.55;;;31.60;;
53267;SDS011;39156;51.176;6.738;2023-08-06T07:59:56;33.50;;;31.70;;
53267;SDS011;39156;51.176;6.738;2023-08-06T08:02:22;32.20;;;30.50;;
53267;SDS011;39156;51.176;6.738;2023-08-06T08:04:47;31.90;;;30.20;;
53267;SDS011;39156;51.176;6.738;2023-08-06T08:07:13;32.70;;;30.80;;
53267;SDS011;39156;51.176;6.738;2023-08-06T08:09:39;30.95;;;29.35;;
53267;SDS011;39156;51.176;6.738;2023-08-06T08:12:05;31.07;;;29.40;;
53267;SDS011;39156;51.176;6.738;2023-08-06T08:14:31;31.80;;;30.10;;
53267;SDS011;39156;51.176;6.738;2023-08-06T08:17:04;32.08;;;30.38;;
53267;SDS011;39156;51.176;6.738;2023-08-06T08:19:30;31.17;;;29.48;;
53267;SDS011;39156;51.176;6.738;2023-08-06T08:24:22;31.85;;;30.15;;
53267;SDS011;39156;51.176;6.738;2023-08-06T08:26:49;31.45;;;29.65;;
53267;SDS011;39156;51.176;6.738;2023-08-06T08:29:16;30.50;;;28.90;;
53267;SDS011;39156;51.176;6.738;2023-08-06T08:31:41;29.63;;;27.95;;
53267;SDS011;39156;51.176;6.738;2023-08-06T08:34:08;30.80;;;29.20;;
53267;SDS011;39156;51.176;6.738;2023-08-06T08:36:34;29.63;;;28.02;;
53267;SDS011;39156;51.176;6.738;2023-08-06T08:39:00;28.70;;;27.20;;
53267;SDS011;39156;51.176;6.738;2023-08-06T08:41:27;28.75;;;27.25;;
53267;SDS011;39156;51.176;6.738;2023-08-06T08:43:54;29.80;;;28.30;;
53267;SDS011;39156;51.176;6.738;2023-08-06T08:46:23;29.17;;;27.70;;
53267;SDS011;39156;51.176;6.738;2023-08-06T08:48:52;28.77;;;27.10;;
53267;SDS011;39156;51.176;6.738;2023-08-06T08:51:19;28.98;;;27.45;;
53267;SDS011;39156;51.176;6.738;2023-08-06T08:56:12;29.33;;;27.83;;
53267;SDS011;39156;51.176;6.738;2023-08-06T08:58:39;30.35;;;28.75;;
53267;SDS011;39156;51.176;6.738;2023-08-06T09:01:05;30.80;;;29.10;;
53267;SDS011;39156;51.176;6.738;2023-08-06T09:03:32;29.52;;;28.02;;
53267;SDS011;39156;51.176;6.738;2023-08-06T09:05:59;31.05;;;29.45;;
53267;SDS011;39156;51.176;6.738;2023-08-06T09:08:29;30.52;;;28.92;;
53267;SDS011;39156;51.176;6.738;2023-08-06T09:11:03;33.03;;;31.23;;
53267;SDS011;39156;51.176;6.738;2023-08-06T09:13:35;30.85;;;29.25;;
53267;SDS011;39156;51.176;6.738;2023-08-06T09:16:02;30.08;;;28.38;;
53267;SDS011;39156;51.176;6.738;2023-08-06T09:18:31;28.67;;;27.17;;
53267;SDS011;39156;51.176;6.738;2023-08-06T09:20:57;28.10;;;26.70;;
53267;SDS011;39156;51.176;6.738;2023-08-06T09:23:29;27.98;;;26.55;;
53267;SDS011;39156;51.176;6.738;2023-08-06T09:25:57;29.08;;;27.38;;
53267;SDS011;39156;51.176;6.738;2023-08-06T09:28:23;30.88;;;28.90;;
53267;SDS011;39156;51.176;6.738;2023-08-06T09:30:52;31.45;;;29.65;;
53267;SDS011;39156;51.176;6.738;2023-08-06T09:33:20;31.73;;;29.80;;
53267;SDS011;39156;51.176;6.738;2023-08-06T09:35:48;30.13;;;28.55;;
53267;SDS011;39156;51.176;6.738;2023-08-06T09:38:14;31.67;;;30.00;;
53267;SDS011;39156;51.176;6.738;2023-08-06T09:40:40;29.60;;;28.00;;
53267;SDS011;39156;51.176;6.738;2023-08-06T09:43:05;30.52;;;28.95;;
53267;SDS011;39156;51.176;6.738;2023-08-06T09:48:03;32.83;;;31.13;;
53267;SDS011;39156;51.176;6.738;2023-08-06T09:50:30;32.75;;;30.75;;
53267;SDS011;39156;51.176;6.738;2023-08-06T09:52:58;32.40;;;30.58;;
53267;SDS011;39156;51.176;6.738;2023-08-06T09:55:25;32.88;;;31.08;;
53267;SDS011;39156;51.176;6.738;2023-08-06T09:57:52;34.42;;;32.13;;
53267;SDS011;39156;51.176;6.738;2023-08-06T10:00:19;31.88;;;29.98;;
53267;SDS011;39156;51.176;6.738;2023-08-06T10:02:47;31.67;;;30.05;;
53267;SDS011;39156;51.176;6.738;2023-08-06T10:05:14;33.60;;;31.67;;
53267;SDS011;39156;51.176;6.738;2023-08-06T10:07:41;32.92;;;31.13;;
53267;SDS011;39156;51.176;6.738;2023-08-06T10:10:09;34.38;;;32.40;;
53267;SDS011;39156;51.176;6.738;2023-08-06T10:12:37;32.67;;;30.97;;
53267;SDS011;39156;51.176;6.738;2023-08-06T10:15:09;32.67;;;30.92;;
53267;SDS011;39156;51.176;6.738;2023-08-06T10:17:51;31.55;;;29.85;;
53267;SDS011;39156;51.176;6.738;2023-08-06T10:20:20;30.73;;;29.15;;
53267;SDS011;39156;51.176;6.738;2023-08-06T10:22:55;31.95;;;30.35;;
53267;SDS011;39156;51.176;6.738;2023-08-06T10:25:30;31.60;;;29.92;;
53267;SDS011;39156;51.176;6.738;2023-08-06T10:27:58;31.50;;;29.90;;
53267;SDS011;39156;51.176;6.738;2023-08-06T10:30:25;32.97;;;31.27;;
53267;SDS011;39156;51.176;6.738;2023-08-06T10:32:57;32.90;;;31.27;;
53267;SDS011;39156;51.176;6.738;2023-08-06T10:35:28;32.05;;;30.45;;
53267;SDS011;39156;51.176;6.738;2023-08-06T10:40:40;31.23;;;29.63;;
53267;SDS011;39156;51.176;6.738;2023-08-06T10:46:01;32.70;;;31.10;;
53267;SDS011;39156;51.176;6.738;2023-08-06T10:51:02;32.50;;;30.88;;
53267;SDS011;39156;51.176;6.738;2023-08-06T10:53:33;32.13;;;30.52;;
53267;SDS011;39156;51.176;6.738;2023-08-06T10:55:59;30.70;;;29.20;;
53267;SDS011;39156;51.176;6.738;2023-08-06T10:58:48;31.45;;;29.85;;
53267;SDS011;39156;51.176;6.738;2023-08-06T11:01:15;32.25;;;30.63;;
53267;SDS011;39156;51.176;6.738;2023-08-06T11:03:42;31.33;;;29.73;;
53267;SDS011;39156;51.176;6.738;2023-08-06T11:06:10;32.85;;;31.23;;
53267;SDS011;39156;51.176;6.738;2023-08-06T11:08:47;32.30;;;30.70;;
53267;SDS011;39156;51.176;6.738;2023-08-06T11:11:15;33.20;;;31.50;;
53267;SDS011;39156;51.176;6.738;2023-08-06T11:16:16;32.50;;;30.90;;
53267;SDS011;39156;51.176;6.738;2023-08-06T11:18:44;32.60;;;30.90;;
53267;SDS011;39156;51.176;6.738;2023-08-06T11:21:11;32.13;;;30.42;;
53267;SDS011;39156;51.176;6.738;2023-08-06T11:23:37;33.43;;;31.63;;
53267;SDS011;39156;51.176;6.738;2023-08-06T11:26:03;33.03;;;31.33;;
53267;SDS011;39156;51.176;6.738;2023-08-06T11:28:29;33.85;;;32.10;;
53267;SDS011;39156;51.176;6.738;2023-08-06T11:30:55;33.77;;;32.03;;
53267;SDS011;39156;51.176;6.738;2023-08-06T11:33:25;33.90;;;32.13;;
53267;SDS011;39156;51.176;6.738;2023-08-06T11:35:54;35.20;;;33.17;;
53267;SDS011;39156;51.176;6.738;2023-08-06T11:38:21;33.10;;;31.40;;
53267;SDS011;39156;51.176;6.738;2023-08-06T11:40:50;36.85;;;34.67;;
53267;SDS011;39156;51.176;6.738;2023-08-06T11:43:17;34.28;;;32.38;;
53267;SDS011;39156;51.176;6.738;2023-08-06T11:45:45;35.15;;;33.35;;
53267;SDS011;39156;51.176;6.738;2023-08-06T11:48:11;34.28;;;32.30;;
53267;SDS011;39156;51.176;6.738;2023-08-06T11:50:37;34.47;;;32.57;;
53267;SDS011;39156;51.176;6.738;2023-08-06T11:53:03;34.58;;;32.63;;
53267;SDS011;39156;51.176;6.738;2023-08-06T11:55:30;34.40;;;32.50;;
53267;SDS011;39156;51.176;6.738;2023-08-06T11:57:56;33.90;;;31.90;;
53267;SDS011;39156;51.176;6.738;2023-08-06T12:00:24;34.10;;;32.25;;
53267;SDS011;39156;51.176;6.738;2023-08-06T12:02:51;33.40;;;31.60;;
53267;SDS011;39156;51.176;6.738;2023-08-06T12:05:18;34.03;;;32.17;;
53267;SDS011;39156;51.176;6.738;2023-08-06T12:07:46;34.17;;;32.25;;
53267;SDS011;39156;51.176;6.738;2023-08-06T12:10:14;33.55;;;31.65;;
53267;SDS011;39156;51.176;6.738;2023-08-06T12:15:07;34.35;;;32.45;;
53267;SDS011;39156;51.176;6.738;2023-08-06T12:17:34;34.78;;;32.88;;
53267;SDS011;39156;51.176;6.738;2023-08-06T12:20:01;35.08;;;33.28;;
53267;SDS011;39156;51.176;6.738;2023-08-06T12:22:31;34.13;;;32.28;;
53267;SDS011;39156;51.176;6.738;2023-08-06T12:25:00;36.20;;;34.08;;
53267;SDS011;39156;51.176;6.738;2023-08-06T12:27:34;35.80;;;33.80;;
53267;SDS011;39156;51.176;6.738;2023-08-06T12:30:00;35.13;;;33.25;;
53267;SDS011;39156;51.176;6.738;2023-08-06T12:32:26;35.77;;;33.77;;
53267;SDS011;39156;51.176;6.738;2023-08-06T12:34:52;36.47;;;34.47;;
53267;SDS011;39156;51.176;6.738;2023-08-06T12:37:18;36.27;;;34.37;;
53267;SDS011;39156;51.176;6.738;2023-08-06T12:39:43;34.13;;;32.27;;
53267;SDS011;39156;51.176;6.738;2023-08-06T12:42:09;35.10;;;33.20;;
53267;SDS011;39156;51.176;6.738;2023-08-06T12:44:35;35.28;;;33.38;;
53267;SDS011;39156;51.176;6.738;2023-08-06T12:47:01;34.95;;;32.97;;
53267;SDS011;39156;51.176;6.738;2023-08-06T12:49:27;33.70;;;31.60;;
53267;SDS011;39156;51.176;6.738;2023-08-06T12:51:54;37.35;;;35.28;;
53267;SDS011;39156;51.176;6.738;2023-08-06T12:54:21;34.95;;;33.13;;
53267;SDS011;39156;51.176;6.738;2023-08-06T12:56:47;34.77;;;32.87;;
53267;SDS011;39156;51.176;6.738;2023-08-06T12:59:14;34.45;;;32.60;;
53267;SDS011;39156;51.176;6.738;2023-08-06T13:01:41;34.45;;;32.55;;
53267;SDS011;39156;51.176;6.738;2023-08-06T13:04:08;34.97;;;33.15;;
53267;SDS011;39156;51.176;6.738;2023-08-06T13:06:34;33.65;;;31.83;;
53267;SDS011;39156;51.176;6.738;2023-08-06T13:09:04;32.70;;;31.00;;
53267;SDS011;39156;51.176;6.738;2023-08-06T13:11:36;33.40;;;31.70;;
53267;SDS011;39156;51.176;6.738;2023-08-06T13:14:07;33.53;;;31.75;;
53267;SDS011;39156;51.176;6.738;2023-08-06T13:16:38;33.10;;;31.30;;
53267;SDS011;39156;51.176;6.738;2023-08-06T13:19:06;32.65;;;30.95;;
53267;SDS011;39156;51.176;6.738;2023-08-06T13:24:00;32.95;;;31.15;;
53267;SDS011;39156;51.176;6.738;2023-08-06T13:26:28;32.92;;;31.13;;
53267;SDS011;39156;51.176;6.738;2023-08-06T13:28:57;33.75;;;31.95;;
53267;SDS011;39156;51.176;6.738;2023-08-06T13:31:23;34.20;;;32.40;;
53267;SDS011;39156;51.176;6.738;2023-08-06T13:33:49;33.60;;;31.73;;
53267;SDS011;39156;51.176;6.738;2023-08-06T13:36:15;33.47;;;31.67;;
53267;SDS011;39156;51.176;6.738;2023-08-06T13:38:42;32.97;;;31.27;;
53267;SDS011;39156;51.176;6.738;2023-08-06T13:41:09;33.60;;;31.80;;
53267;SDS011;39156;51.176;6.738;2023-08-06T13:43:34;34.00;;;32.17;;
53267;SDS011;39156;51.176;6.738;2023-08-06T13:46:00;34.43;;;32.53;;
53267;SDS011;39156;51.176;6.738;2023-08-06T13:48:26;37.07;;;35.00;;
53267;SDS011;39156;51.176;6.738;2023-08-06T13:50:51;33.87;;;32.07;;
53267;SDS011;39156;51.176;6.738;2023-08-06T13:53:17;34.10;;;32.20;;
53267;SDS011;39156;51.176;6.738;2023-08-06T13:55:43;35.03;;;33.13;;
53267;SDS011;39156;51.176;6.738;2023-08-06T13:58:09;34.57;;;32.57;;
53267;SDS011;39156;51.176;6.738;2023-08-06T14:00:37;34.33;;;32.47;;
53267;SDS011;39156;51.176;6.738;2023-08-06T14:03:03;34.90;;;32.80;;
53267;SDS011;39156;51.176;6.738;2023-08-06T14:05:28;34.43;;;32.53;;
53267;SDS011;39156;51.176;6.738;2023-08-06T14:07:54;32.90;;;31.10;;
53267;SDS011;39156;51.176;6.738;2023-08-06T14:10:20;35.60;;;33.70;;
53267;SDS011;39156;51.176;6.738;2023-08-06T14:12:46;33.63;;;31.77;;
53267;SDS011;39156;51.176;6.738;2023-08-06T14:15:11;34.87;;;32.97;;
53267;SDS011;39156;51.176;6.738;2023-08-06T14:17:37;33.27;;;31.37;;
53267;SDS011;39156;51.176;6.738;2023-08-06T14:20:03;33.53;;;31.40;;
53267;SDS011;39156;51.176;6.738;2023-08-06T14:22:32;34.83;;;32.85;;
53267;SDS011;39156;51.176;6.738;2023-08-06T14:24:58;33.90;;;32.00;;
53267;SDS011;39156;51.176;6.738;2023-08-06T14:27:24;34.45;;;32.55;;
53267;SDS011;39156;51.176;6.738;2023-08-06T14:29:50;34.33;;;32.35;;
53267;SDS011;39156;51.176;6.738;2023-08-06T14:32:16;33.60;;;31.80;;
53267;SDS011;39156;51.176;6.738;2023-08-06T14:34:43;33.67;;;31.83;;
53267;SDS011;39156;51.176;6.738;2023-08-06T14:37:09;32.63;;;30.88;;
53267;SDS011;39156;51.176;6.738;2023-08-06T14:39:35;33.90;;;31.90;;
53267;SDS011;39156;51.176;6.738;2023-08-06T14:42:01;33.63;;;31.83;;
53267;SDS011;39156;51.176;6.738;2023-08-06T14:44:28;33.28;;;31.48;;
53267;SDS011;39156;51.176;6.738;2023-08-06T14:46:54;32.97;;;31.17;;
53267;SDS011;39156;51.176;6.738;2023-08-06T14:49:20;32.80;;;31.10;;
53267;SDS011;39156;51.176;6.738;2023-08-06T14:51:45;33.60;;;31.90;;